Flugplatz Grefrath-Niershorst

Für EDLF sind keine METAR/TAF Berichte vorhanden.
Es werden die Flugwettermeldungen vom Flugplatz Mönchengladbach in 15 km Entfernung angezeigt.

Bericht für EDLN

vom 10.04. um 11:50 UTC

Wind 5 kt aus 70°

Sichtweite 4000 m

Regen

feuchter Dunst

gering bewölkt in 700 ft

aufgebrochene Bewölkung in 2800 ft

bedeckt in 3600 ft

Temperatur 9.0°C

Taupunkt 8.0°C

Luftfeuchtigkeit 93%

Luftdruck 1012 hPa

EDLN 101150Z 07005KT 4000 RA BR FEW007 BKN028 OVC036 09/08 Q1012

Prognose für EDLN

vom 10.04. um 11:00 UTC

Zwischen 12:00 UTC und 21:00 UTC

Wind 4 kt aus 80°

Sichtweite 8000 m

aufgebrochene Bewölkung in 3000 ft


Zwischen 12:00 UTC und 18:00 UTC zeitweise

Sichtweite 3000 m

Regen

aufgebrochene Bewölkung in 900 ft

TAF EDLN 101100Z 1012/1021 08004KT 8000 BKN030 TEMPO 1012/1018 3000 RA BKN009
Impressum